Chesterfield, United Kingdom
Current Conditions -  °F | °C
As of 4:20 PM on Wednesday 22 Oct 2014 (Local Time) from EGCN Reporting Station
Scattered Clouds Scattered Clouds  
Wind Chill: 11°   Ceiling: Unl
Heat Index: 11°   Visibility: 6mi
Dew Point:   Wind: 12mph
Humidity: 88%   Direction: 230°SW
Pressure: 30.18"   Gusts: NA
Location:  53.26°N, 1.39°W
Report Text: EGCN 221520Z AUTO 23010KT 9999 SCT024/// 11/09 Q1022
Loading
Personal Weather Stations






























Interactive Weather Map
Tropical Storm Tracking
New forecast layout! Learn more

10-Day Weather Forecast

Advertisements
Track Severe Weather on mobile